sensor_id;sensor_type;location;lat;lon;timestamp;pressure;altitude;pressure_sealevel;temperature;humidity
61474;BME280;53694;49.784;30.150;2023-04-02T00:00:20;98420.62;;;13.06;71.60
61474;BME280;53694;49.784;30.150;2023-04-02T00:01:25;98424.77;;;13.28;70.95
61474;BME280;53694;49.784;30.150;2023-04-02T00:02:29;98427.70;;;13.52;70.05
61474;BME280;53694;49.784;30.150;2023-04-02T00:07:32;98418.39;;;14.07;67.43
61474;BME280;53694;49.784;30.150;2023-04-02T00:08:37;98423.29;;;13.92;67.54
61474;BME280;53694;49.784;30.150;2023-04-02T00:09:39;98425.55;;;13.66;68.06
61474;BME280;53694;49.784;30.150;2023-04-02T00:10:52;98419.22;;;13.32;68.97
61474;BME280;53694;49.784;30.150;2023-04-02T00:11:52;98420.30;;;12.96;70.12
61474;BME280;53694;49.784;30.150;2023-04-02T00:15:29;98418.58;;;11.98;74.16
61474;BME280;53694;49.784;30.150;2023-04-02T00:16:31;98423.30;;;11.94;75.12
61474;BME280;53694;49.784;30.150;2023-04-02T00:17:33;98418.52;;;12.06;75.18
61474;BME280;53694;49.784;30.150;2023-04-02T00:18:39;98417.64;;;12.23;75.14
61474;BME280;53694;49.784;30.150;2023-04-02T00:21:20;98417.78;;;12.64;73.68
61474;BME280;53694;49.784;30.150;2023-04-02T00:22:21;98422.75;;;12.87;73.01
61474;BME280;53694;49.784;30.150;2023-04-02T00:23:23;98423.34;;;13.09;71.93
61474;BME280;53694;49.784;30.150;2023-04-02T00:24:25;98422.81;;;13.25;71.35
61474;BME280;53694;49.784;30.150;2023-04-02T00:25:27;98425.84;;;13.38;70.71
61474;BME280;53694;49.784;30.150;2023-04-02T00:26:35;98425.75;;;13.48;70.42
61474;BME280;53694;49.784;30.150;2023-04-02T00:27:38;98426.08;;;13.54;69.77
61474;BME280;53694;49.784;30.150;2023-04-02T00:28:40;98424.81;;;13.62;69.60
61474;BME280;53694;49.784;30.150;2023-04-02T00:29:53;98425.16;;;13.68;69.51
61474;BME280;53694;49.784;30.150;2023-04-02T00:30:58;98433.80;;;13.70;69.37
61474;BME280;53694;49.784;30.150;2023-04-02T00:32:00;98424.52;;;13.53;69.49
61474;BME280;53694;49.784;30.150;2023-04-02T00:33:02;98422.40;;;13.30;70.14
61474;BME280;53694;49.784;30.150;2023-04-02T00:34:06;98424.18;;;13.03;70.97
61474;BME280;53694;49.784;30.150;2023-04-02T00:35:12;98420.48;;;12.75;72.03
61474;BME280;53694;49.784;30.150;2023-04-02T00:36:14;98424.55;;;12.53;72.91
61474;BME280;53694;49.784;30.150;2023-04-02T00:37:20;98424.22;;;12.43;73.63
61474;BME280;53694;49.784;30.150;2023-04-02T00:38:30;98427.75;;;12.44;73.90
61474;BME280;53694;49.784;30.150;2023-04-02T00:39:37;98421.02;;;12.52;73.83
61474;BME280;53694;49.784;30.150;2023-04-02T00:40:38;98420.16;;;12.66;73.82
61474;BME280;53694;49.784;30.150;2023-04-02T00:41:41;98417.65;;;12.82;73.48
61474;BME280;53694;49.784;30.150;2023-04-02T00:42:43;98422.63;;;13.01;72.96
61474;BME280;53694;49.784;30.150;2023-04-02T00:43:45;98417.75;;;13.16;72.33
61474;BME280;53694;49.784;30.150;2023-04-02T00:44:49;98423.92;;;13.35;71.97
61474;BME280;53694;49.784;30.150;2023-04-02T00:45:54;98424.55;;;13.49;71.41
61474;BME280;53694;49.784;30.150;2023-04-02T00:46:56;98415.72;;;13.65;70.53
61474;BME280;53694;49.784;30.150;2023-04-02T00:47:59;98417.95;;;13.78;69.86
61474;BME280;53694;49.784;30.150;2023-04-02T00:49:11;98423.36;;;13.85;69.31
61474;BME280;53694;49.784;30.150;2023-04-02T00:50:21;98424.06;;;13.92;69.29
61474;BME280;53694;49.784;30.150;2023-04-02T00:51:31;98428.81;;;13.92;68.93
61474;BME280;53694;49.784;30.150;2023-04-02T00:52:34;98424.25;;;13.78;69.23
61474;BME280;53694;49.784;30.150;2023-04-02T00:53:36;98422.96;;;13.52;69.84
61474;BME280;53694;49.784;30.150;2023-04-02T00:56:36;98418.77;;;12.92;71.47
61474;BME280;53694;49.784;30.150;2023-04-02T00:57:43;98420.66;;;12.46;73.12
61474;BME280;53694;49.784;30.150;2023-04-02T00:58:49;98420.05;;;12.14;74.49
61474;BME280;53694;49.784;30.150;2023-04-02T00:59:59;98420.48;;;12.09;75.24
61474;BME280;53694;49.784;30.150;2023-04-02T01:01:02;98432.61;;;12.18;75.47
61474;BME280;53694;49.784;30.150;2023-04-02T01:04:32;98416.53;;;12.76;74.21
61474;BME280;53694;49.784;30.150;2023-04-02T01:05:34;98426.98;;;12.95;73.48
61474;BME280;53694;49.784;30.150;2023-04-02T01:06:37;98432.37;;;13.13;72.88
61474;BME280;53694;49.784;30.150;2023-04-02T01:08:04;98430.67;;;13.30;72.21
61474;BME280;53694;49.784;30.150;2023-04-02T01:13:53;98429.52;;;13.99;69.44
61474;BME280;53694;49.784;30.150;2023-04-02T01:15:24;98426.94;;;14.16;68.70
61474;BME280;53694;49.784;30.150;2023-04-02T01:17:41;98431.57;;;14.22;68.12
61474;BME280;53694;49.784;30.150;2023-04-02T01:20:02;98429.80;;;13.74;69.08
61474;BME280;53694;49.784;30.150;2023-04-02T01:21:21;98431.75;;;13.40;70.15
61474;BME280;53694;49.784;30.150;2023-04-02T01:22:27;98425.80;;;13.00;71.42
61474;BME280;53694;49.784;30.150;2023-04-02T01:24:54;98428.63;;;12.30;74.21
61474;BME280;53694;49.784;30.150;2023-04-02T01:27:14;98428.64;;;12.26;75.66
61474;BME280;53694;49.784;30.150;2023-04-02T01:28:27;98429.34;;;12.45;75.56
61474;BME280;53694;49.784;30.150;2023-04-02T01:29:53;98430.78;;;12.64;74.98
61474;BME280;53694;49.784;30.150;2023-04-02T01:30:57;98434.94;;;12.86;74.34
61474;BME280;53694;49.784;30.150;2023-04-02T01:32:06;98431.17;;;13.14;73.59
61474;BME280;53694;49.784;30.150;2023-04-02T01:33:10;98428.66;;;13.34;72.48
61474;BME280;53694;49.784;30.150;2023-04-02T01:34:17;98434.80;;;13.49;72.04
61474;BME280;53694;49.784;30.150;2023-04-02T01:35:20;98424.42;;;13.64;71.36
61474;BME280;53694;49.784;30.150;2023-04-02T01:37:52;98435.25;;;13.82;70.29
61474;BME280;53694;49.784;30.150;2023-04-02T01:39:02;98432.81;;;13.87;70.02
61474;BME280;53694;49.784;30.150;2023-04-02T01:41:42;98436.94;;;14.06;69.56
61474;BME280;53694;49.784;30.150;2023-04-02T01:44:14;98436.23;;;14.29;69.13
61474;BME280;53694;49.784;30.150;2023-04-02T01:45:18;98440.20;;;14.28;68.47
61474;BME280;53694;49.784;30.150;2023-04-02T01:46:31;98441.61;;;14.09;68.97
61474;BME280;53694;49.784;30.150;2023-04-02T01:47:30;98436.38;;;13.84;69.73
61474;BME280;53694;49.784;30.150;2023-04-02T01:48:32;98439.09;;;13.54;70.53
61474;BME280;53694;49.784;30.150;2023-04-02T01:49:34;98442.14;;;13.21;71.44
61474;BME280;53694;49.784;30.150;2023-04-02T01:50:37;98434.91;;;12.90;72.25
61474;BME280;53694;49.784;30.150;2023-04-02T01:51:42;98431.19;;;12.62;73.41
61474;BME280;53694;49.784;30.150;2023-04-02T01:52:46;98434.80;;;12.48;74.23
61474;BME280;53694;49.784;30.150;2023-04-02T01:53:48;98439.16;;;12.46;74.63
61474;BME280;53694;49.784;30.150;2023-04-02T01:54:51;98438.73;;;12.51;74.79
61474;BME280;53694;49.784;30.150;2023-04-02T01:55:59;98440.23;;;12.63;74.85
61474;BME280;53694;49.784;30.150;2023-04-02T01:56:58;98432.28;;;12.75;74.55
61474;BME280;53694;49.784;30.150;2023-04-02T01:58:00;98431.77;;;12.91;73.93
61474;BME280;53694;49.784;30.150;2023-04-02T01:59:03;98434.81;;;13.04;73.66
61474;BME280;53694;49.784;30.150;2023-04-02T02:00:06;98434.27;;;13.20;73.25
61474;BME280;53694;49.784;30.150;2023-04-02T02:01:14;98430.25;;;13.32;72.41
61474;BME280;53694;49.784;30.150;2023-04-02T02:02:17;98439.60;;;13.41;72.20
61474;BME280;53694;49.784;30.150;2023-04-02T02:03:20;98438.34;;;13.49;71.84
61474;BME280;53694;49.784;30.150;2023-04-02T02:04:22;98434.70;;;13.60;71.49
61474;BME280;53694;49.784;30.150;2023-04-02T02:05:24;98433.83;;;13.66;70.97
61474;BME280;53694;49.784;30.150;2023-04-02T02:06:26;98429.84;;;13.71;70.97
61474;BME280;53694;49.784;30.150;2023-04-02T02:07:28;98440.02;;;13.78;70.88
61474;BME280;53694;49.784;30.150;2023-04-02T02:08:38;98440.73;;;13.85;70.52
61474;BME280;53694;49.784;30.150;2023-04-02T02:09:41;98434.36;;;13.88;70.00
61474;BME280;53694;49.784;30.150;2023-04-02T02:10:44;98438.25;;;13.94;69.78
61474;BME280;53694;49.784;30.150;2023-04-02T02:11:45;98438.61;;;13.96;69.55
61474;BME280;53694;49.784;30.150;2023-04-02T02:12:48;98431.53;;;13.95;69.26
61474;BME280;53694;49.784;30.150;2023-04-02T02:13:53;98438.29;;;13.91;69.64
61474;BME280;53694;49.784;30.150;2023-04-02T02:14:55;98438.47;;;13.77;69.88
61474;BME280;53694;49.784;30.150;2023-04-02T02:15:58;98437.95;;;13.51;70.43
61474;BME280;53694;49.784;30.150;2023-04-02T02:17:01;98438.22;;;13.19;71.41
61474;BME280;53694;49.784;30.150;2023-04-02T02:18:04;98434.57;;;12.84;72.57
61474;BME280;53694;49.784;30.150;2023-04-02T02:20:21;98436.42;;;12.42;74.62
61474;BME280;53694;49.784;30.150;2023-04-02T02:22:31;98435.95;;;12.55;75.10
61474;BME280;53694;49.784;30.150;2023-04-02T02:23:33;98430.73;;;12.71;74.58
61474;BME280;53694;49.784;30.150;2023-04-02T02:24:35;98430.20;;;12.87;74.06
61474;BME280;53694;49.784;30.150;2023-04-02T02:25:36;98432.08;;;13.00;73.67
61474;BME280;53694;49.784;30.150;2023-04-02T02:26:40;98428.00;;;13.16;73.22
61474;BME280;53694;49.784;30.150;2023-04-02T02:27:55;98430.25;;;13.32;72.62
61474;BME280;53694;49.784;30.150;2023-04-02T02:28:58;98428.52;;;13.48;72.29
61474;BME280;53694;49.784;30.150;2023-04-02T02:31:17;98434.01;;;13.86;70.82
61474;BME280;53694;49.784;30.150;2023-04-02T02:32:22;98425.55;;;14.00;70.10
61474;BME280;53694;49.784;30.150;2023-04-02T02:34:13;98426.16;;;14.15;69.53
61474;BME280;53694;49.784;30.150;2023-04-02T02:34:38;98425.23;;;14.25;69.17
61474;BME280;53694;49.784;30.150;2023-04-02T02:36:04;98431.44;;;14.33;68.67
61474;BME280;53694;49.784;30.150;2023-04-02T02:37:28;98428.30;;;14.31;68.41
61474;BME280;53694;49.784;30.150;2023-04-02T02:39:44;98433.44;;;13.68;69.87
61474;BME280;53694;49.784;30.150;2023-04-02T02:40:49;98415.30;;;13.29;70.92
61474;BME280;53694;49.784;30.150;2023-04-02T02:41:56;98425.53;;;12.84;72.42
61474;BME280;53694;49.784;30.150;2023-04-02T02:43:00;98424.63;;;12.42;73.88
61474;BME280;53694;49.784;30.150;2023-04-02T02:45:23;98432.33;;;11.98;76.44
61474;BME280;53694;49.784;30.150;2023-04-02T02:46:27;98424.45;;;12.00;76.99
61474;BME280;53694;49.784;30.150;2023-04-02T02:47:35;98422.82;;;12.10;76.94
61474;BME280;53694;49.784;30.150;2023-04-02T02:48:38;98433.38;;;12.22;76.88
61474;BME280;53694;49.784;30.150;2023-04-02T02:49:43;98427.80;;;12.40;76.52
61474;BME280;53694;49.784;30.150;2023-04-02T02:50:47;98424.52;;;12.60;75.91
61474;BME280;53694;49.784;30.150;2023-04-02T02:51:53;98427.11;;;12.81;75.29
61474;BME280;53694;49.784;30.150;2023-04-02T02:52:57;98430.49;;;12.99;74.10
61474;BME280;53694;49.784;30.150;2023-04-02T02:54:01;98433.51;;;13.16;73.97
61474;BME280;53694;49.784;30.150;2023-04-02T02:55:16;98427.05;;;13.37;73.42
61474;BME280;53694;49.784;30.150;2023-04-02T02:56:20;98426.86;;;13.55;72.58
61474;BME280;53694;49.784;30.150;2023-04-02T02:57:29;98432.59;;;13.71;71.63
61474;BME280;53694;49.784;30.150;2023-04-02T02:58:32;98433.63;;;13.84;70.80
61474;BME280;53694;49.784;30.150;2023-04-02T02:59:35;98431.95;;;13.94;70.67
61474;BME280;53694;49.784;30.150;2023-04-02T03:00:38;98429.01;;;14.08;70.22
61474;BME280;53694;49.784;30.150;2023-04-02T03:01:40;98425.70;;;14.20;69.40
61474;BME280;53694;49.784;30.150;2023-04-02T03:02:44;98437.01;;;14.30;69.12
61474;BME280;53694;49.784;30.150;2023-04-02T03:03:47;98425.88;;;14.37;68.29
61474;BME280;53694;49.784;30.150;2023-04-02T03:04:52;98433.42;;;14.33;68.06
61474;BME280;53694;49.784;30.150;2023-04-02T03:06:09;98431.73;;;14.12;68.45
61474;BME280;53694;49.784;30.150;2023-04-02T03:07:12;98438.40;;;13.80;69.48
61474;BME280;53694;49.784;30.150;2023-04-02T03:09:17;98432.98;;;13.35;70.66
61474;BME280;53694;49.784;30.150;2023-04-02T03:11:06;98437.19;;;12.46;73.85
61474;BME280;53694;49.784;30.150;2023-04-02T03:15:57;98438.84;;;12.33;76.82
61474;BME280;53694;49.784;30.150;2023-04-02T03:17:09;98439.49;;;12.55;76.53
61474;BME280;53694;49.784;30.150;2023-04-02T03:20:56;98442.45;;;13.34;73.58
61474;BME280;53694;49.784;30.150;2023-04-02T03:23:28;98436.77;;;13.86;71.38
61474;BME280;53694;49.784;30.150;2023-04-02T03:28:22;98442.86;;;14.66;68.00
61474;BME280;53694;49.784;30.150;2023-04-02T03:29:29;98435.64;;;14.72;67.80
61474;BME280;53694;49.784;30.150;2023-04-02T03:30:41;98441.70;;;14.63;67.86
61474;BME280;53694;49.784;30.150;2023-04-02T03:31:55;98445.61;;;14.35;67.89
61474;BME280;53694;49.784;30.150;2023-04-02T03:33:00;98440.23;;;13.94;68.24
61474;BME280;53694;49.784;30.150;2023-04-02T03:34:30;98452.58;;;13.44;69.99
61474;BME280;53694;49.784;30.150;2023-04-02T03:35:42;98447.03;;;12.99;71.56
61474;BME280;53694;49.784;30.150;2023-04-02T03:37:09;98435.99;;;12.47;73.66
61474;BME280;53694;49.784;30.150;2023-04-02T03:38:17;98448.40;;;12.11;75.15
61474;BME280;53694;49.784;30.150;2023-04-02T03:39:37;98448.47;;;11.82;76.85
61474;BME280;53694;49.784;30.150;2023-04-02T03:42:06;98448.44;;;11.96;77.59
61474;BME280;53694;49.784;30.150;2023-04-02T03:43:14;98442.05;;;12.21;77.17
61474;BME280;53694;49.784;30.150;2023-04-02T03:44:29;98450.56;;;12.44;77.09
61474;BME280;53694;49.784;30.150;2023-04-02T03:45:34;98446.87;;;12.69;76.30
61474;BME280;53694;49.784;30.150;2023-04-02T03:46:48;98441.96;;;12.94;75.10
61474;BME280;53694;49.784;30.150;2023-04-02T03:48:05;98448.94;;;13.10;74.34
61474;BME280;53694;49.784;30.150;2023-04-02T03:49:19;98450.36;;;13.29;73.58
61474;BME280;53694;49.784;30.150;2023-04-02T03:51:36;98455.94;;;13.63;72.46
61474;BME280;53694;49.784;30.150;2023-04-02T03:52:38;98449.86;;;13.79;71.52
61474;BME280;53694;49.784;30.150;2023-04-02T03:53:42;98452.45;;;13.93;70.91
61474;BME280;53694;49.784;30.150;2023-04-02T03:54:45;98452.80;;;13.98;70.23
61474;BME280;53694;49.784;30.150;2023-04-02T03:55:46;98462.21;;;14.01;69.91
61474;BME280;53694;49.784;30.150;2023-04-02T03:56:50;98458.59;;;14.08;69.94
61474;BME280;53694;49.784;30.150;2023-04-02T03:59:37;98453.42;;;14.10;69.28
61474;BME280;53694;49.784;30.150;2023-04-02T04:00:42;98458.88;;;13.83;69.59
61474;BME280;53694;49.784;30.150;2023-04-02T04:01:59;98462.86;;;13.40;70.92
61474;BME280;53694;49.784;30.150;2023-04-02T04:04:17;98461.09;;;12.60;73.70
61474;BME280;53694;49.784;30.150;2023-04-02T04:05:26;98464.81;;;12.32;75.04
61474;BME280;53694;49.784;30.150;2023-04-02T04:06:31;98460.13;;;12.18;75.72
61474;BME280;53694;49.784;30.150;2023-04-02T04:07:38;98460.91;;;12.19;76.26
61474;BME280;53694;49.784;30.150;2023-04-02T04:08:53;98468.78;;;12.24;76.31
61474;BME280;53694;49.784;30.150;2023-04-02T04:09:56;98464.38;;;12.37;76.54
61474;BME280;53694;49.784;30.150;2023-04-02T04:11:02;98458.75;;;12.59;76.18
61474;BME280;53694;49.784;30.150;2023-04-02T04:12:23;98457.05;;;12.79;75.73
61474;BME280;53694;49.784;30.150;2023-04-02T04:13:23;98463.56;;;12.99;74.83
61474;BME280;53694;49.784;30.150;2023-04-02T04:14:33;98459.85;;;13.20;74.26
61474;BME280;53694;49.784;30.150;2023-04-02T04:15:39;98465.65;;;13.37;73.35
61474;BME280;53694;49.784;30.150;2023-04-02T04:18:52;98455.51;;;13.68;72.04
61474;BME280;53694;49.784;30.150;2023-04-02T04:20:17;98467.05;;;13.93;70.81
61474;BME280;53694;49.784;30.150;2023-04-02T04:21:26;98472.02;;;14.06;70.29
61474;BME280;53694;49.784;30.150;2023-04-02T04:22:29;98465.98;;;14.14;69.89
61474;BME280;53694;49.784;30.150;2023-04-02T04:23:33;98473.80;;;14.23;69.67
61474;BME280;53694;49.784;30.150;2023-04-02T04:24:36;98474.89;;;14.29;68.99
61474;BME280;53694;49.784;30.150;2023-04-02T04:25:37;98471.39;;;14.25;68.77
61474;BME280;53694;49.784;30.150;2023-04-02T04:28:21;98469.17;;;13.79;69.47
61474;BME280;53694;49.784;30.150;2023-04-02T04:31:07;98473.62;;;12.72;72.62
61474;BME280;53694;49.784;30.150;2023-04-02T04:32:20;98474.30;;;12.17;74.90
61474;BME280;53694;49.784;30.150;2023-04-02T04:33:23;98477.57;;;11.83;76.72
61474;BME280;53694;49.784;30.150;2023-04-02T04:34:34;98469.30;;;11.76;77.73
61474;BME280;53694;49.784;30.150;2023-04-02T04:35:36;98472.83;;;11.80;78.02
61474;BME280;53694;49.784;30.150;2023-04-02T04:36:42;98479.91;;;11.92;78.12
61474;BME280;53694;49.784;30.150;2023-04-02T04:37:45;98475.11;;;12.10;77.92
61474;BME280;53694;49.784;30.150;2023-04-02T04:38:49;98471.89;;;12.30;77.48
61474;BME280;53694;49.784;30.150;2023-04-02T04:40:04;98485.17;;;12.49;77.13
61474;BME280;53694;49.784;30.150;2023-04-02T04:41:18;98467.71;;;12.70;76.60
61474;BME280;53694;49.784;30.150;2023-04-02T04:42:23;98476.59;;;12.95;75.78
61474;BME280;53694;49.784;30.150;2023-04-02T04:43:44;98476.83;;;13.15;74.35
61474;BME280;53694;49.784;30.150;2023-04-02T04:44:52;98481.05;;;13.34;73.74
61474;BME280;53694;49.784;30.150;2023-04-02T04:45:58;98476.59;;;13.47;72.53
61474;BME280;53694;49.784;30.150;2023-04-02T04:47:01;98493.05;;;13.55;72.11
61474;BME280;53694;49.784;30.150;2023-04-02T04:49:19;98486.22;;;13.70;71.39
61474;BME280;53694;49.784;30.150;2023-04-02T04:50:39;98478.69;;;13.74;71.38
61474;BME280;53694;49.784;30.150;2023-04-02T04:51:44;98478.62;;;13.81;70.97
61474;BME280;53694;49.784;30.150;2023-04-02T04:52:46;98483.72;;;13.83;70.28
61474;BME280;53694;49.784;30.150;2023-04-02T04:53:50;98484.88;;;13.85;70.34
61474;BME280;53694;49.784;30.150;2023-04-02T04:54:53;98488.03;;;13.84;70.16
61474;BME280;53694;49.784;30.150;2023-04-02T04:55:55;98490.02;;;13.83;70.37
61474;BME280;53694;49.784;30.150;2023-04-02T04:57:00;98483.30;;;13.84;70.45
61474;BME280;53694;49.784;30.150;2023-04-02T04:59:35;98493.52;;;13.87;69.83
61474;BME280;53694;49.784;30.150;2023-04-02T05:00:46;98489.59;;;13.85;69.99
61474;BME280;53694;49.784;30.150;2023-04-02T05:05:25;98499.83;;;13.46;71.00
61474;BME280;53694;49.784;30.150;2023-04-02T05:07:42;98492.55;;;13.22;71.92
61474;BME280;53694;49.784;30.150;2023-04-02T05:08:44;98489.01;;;13.21;72.11
61474;BME280;53694;49.784;30.150;2023-04-02T05:09:55;98504.36;;;13.26;72.01
61474;BME280;53694;49.784;30.150;2023-04-02T05:11:04;98494.89;;;13.27;71.80
61474;BME280;53694;49.784;30.150;2023-04-02T05:13:43;98498.73;;;13.37;72.25
61474;BME280;53694;49.784;30.150;2023-04-02T05:14:51;98500.22;;;13.48;71.75
61474;BME280;53694;49.784;30.150;2023-04-02T05:16:28;98505.62;;;13.59;71.28
61474;BME280;53694;49.784;30.150;2023-04-02T05:18:06;98502.44;;;13.64;70.43
61474;BME280;53694;49.784;30.150;2023-04-02T05:20:20;98503.06;;;13.79;70.08
61474;BME280;53694;49.784;30.150;2023-04-02T05:21:27;98501.34;;;13.92;70.03
61474;BME280;53694;49.784;30.150;2023-04-02T05:22:35;98506.80;;;13.99;69.36
61474;BME280;53694;49.784;30.150;2023-04-02T05:23:59;98509.09;;;14.05;69.09
61474;BME280;53694;49.784;30.150;2023-04-02T05:25:21;98507.08;;;14.09;68.70
61474;BME280;53694;49.784;30.150;2023-04-02T05:27:38;98505.11;;;13.71;69.74
61474;BME280;53694;49.784;30.150;2023-04-02T05:29:04;98505.03;;;13.37;70.83
61474;BME280;53694;49.784;30.150;2023-04-02T05:30:08;98508.92;;;12.91;72.20
61474;BME280;53694;49.784;30.150;2023-04-02T05:31:13;98503.30;;;12.39;73.87
61474;BME280;53694;49.784;30.150;2023-04-02T05:32:17;98506.58;;;12.06;75.42
61474;BME280;53694;49.784;30.150;2023-04-02T05:33:28;98512.13;;;11.91;76.56
61474;BME280;53694;49.784;30.150;2023-04-02T05:34:33;98513.70;;;11.89;77.08
61474;BME280;53694;49.784;30.150;2023-04-02T05:35:41;98514.09;;;11.98;77.27
61474;BME280;53694;49.784;30.150;2023-04-02T05:36:44;98516.79;;;12.12;77.11
61474;BME280;53694;49.784;30.150;2023-04-02T05:37:47;98516.72;;;12.30;76.78
61474;BME280;53694;49.784;30.150;2023-04-02T05:38:50;98517.39;;;12.52;76.58
61474;BME280;53694;49.784;30.150;2023-04-02T05:39:54;98517.30;;;12.70;75.85
61474;BME280;53694;49.784;30.150;2023-04-02T05:41:00;98516.80;;;12.89;74.95
61474;BME280;53694;49.784;30.150;2023-04-02T05:42:05;98513.94;;;13.04;74.42
61474;BME280;53694;49.784;30.150;2023-04-02T05:43:08;98507.94;;;13.16;73.42
61474;BME280;53694;49.784;30.150;2023-04-02T05:44:28;98517.75;;;13.24;72.73
61474;BME280;53694;49.784;30.150;2023-04-02T05:45:33;98506.25;;;13.33;72.71
61474;BME280;53694;49.784;30.150;2023-04-02T05:46:42;98513.28;;;13.41;72.31
61474;BME280;53694;49.784;30.150;2023-04-02T05:47:45;98511.25;;;13.48;72.04
61474;BME280;53694;49.784;30.150;2023-04-02T05:48:52;98517.88;;;13.55;71.31
61474;BME280;53694;49.784;30.150;2023-04-02T05:51:18;98513.48;;;13.64;70.96
61474;BME280;53694;49.784;30.150;2023-04-02T05:52:22;98515.36;;;13.71;70.79
61474;BME280;53694;49.784;30.150;2023-04-02T05:53:27;98516.50;;;13.77;70.37
61474;BME280;53694;49.784;30.150;2023-04-02T05:56:00;98525.44;;;13.88;69.80
61474;BME280;53694;49.784;30.150;2023-04-02T05:57:06;98526.60;;;13.91;69.90
61474;BME280;53694;49.784;30.150;2023-04-02T05:59:33;98524.63;;;13.91;69.61
61474;BME280;53694;49.784;30.150;2023-04-02T06:00:42;98529.16;;;13.71;70.17
61474;BME280;53694;49.784;30.150;2023-04-02T06:01:45;98526.68;;;13.42;70.85
61474;BME280;53694;49.784;30.150;2023-04-02T06:02:50;98526.91;;;13.07;71.88
61474;BME280;53694;49.784;30.150;2023-04-02T06:05:19;98529.14;;;12.67;73.61
61474;BME280;53694;49.784;30.150;2023-04-02T06:07:54;98528.36;;;12.66;74.07
61474;BME280;53694;49.784;30.150;2023-04-02T06:08:51;98525.09;;;12.82;74.12
61474;BME280;53694;49.784;30.150;2023-04-02T06:10:09;98528.14;;;12.98;73.67
61474;BME280;53694;49.784;30.150;2023-04-02T06:11:12;98526.11;;;13.10;73.26
61474;BME280;53694;49.784;30.150;2023-04-02T06:13:32;98520.02;;;13.36;72.48
61474;BME280;53694;49.784;30.150;2023-04-02T06:14:34;98531.73;;;13.51;71.87
61474;BME280;53694;49.784;30.150;2023-04-02T06:15:37;98525.31;;;13.61;71.63
61474;BME280;53694;49.784;30.150;2023-04-02T06:16:39;98530.36;;;13.70;71.23
61474;BME280;53694;49.784;30.150;2023-04-02T06:18:07;98531.86;;;13.78;70.82
61474;BME280;53694;49.784;30.150;2023-04-02T06:18:54;98532.97;;;13.84;70.61
61474;BME280;53694;49.784;30.150;2023-04-02T06:19:57;98528.13;;;13.95;70.46
61474;BME280;53694;49.784;30.150;2023-04-02T06:21:01;98533.16;;;14.04;69.93
61474;BME280;53694;49.784;30.150;2023-04-02T06:22:48;98529.95;;;14.09;69.62
61474;BME280;53694;49.784;30.150;2023-04-02T06:23:27;98528.70;;;14.14;69.77
61474;BME280;53694;49.784;30.150;2023-04-02T06:24:29;98533.88;;;14.12;69.78
61474;BME280;53694;49.784;30.150;2023-04-02T06:25:41;98531.70;;;13.92;69.69
61474;BME280;53694;49.784;30.150;2023-04-02T06:26:42;98527.66;;;13.63;70.02
61474;BME280;53694;49.784;30.150;2023-04-02T06:27:46;98533.90;;;13.22;71.65
61474;BME280;53694;49.784;30.150;2023-04-02T06:30:13;98536.23;;;12.61;73.85
61474;BME280;53694;49.784;30.150;2023-04-02T06:31:33;98539.42;;;12.52;74.93
61474;BME280;53694;49.784;30.150;2023-04-02T06:32:32;98531.95;;;12.53;75.36
61474;BME280;53694;49.784;30.150;2023-04-02T06:33:34;98535.44;;;12.64;75.52
61474;BME280;53694;49.784;30.150;2023-04-02T06:34:38;98539.70;;;12.79;75.42
61474;BME280;53694;49.784;30.150;2023-04-02T06:35:41;98534.50;;;12.92;74.62
61474;BME280;53694;49.784;30.150;2023-04-02T06:36:44;98535.96;;;13.07;74.20
61474;BME280;53694;49.784;30.150;2023-04-02T06:37:47;98532.72;;;13.19;73.51
61474;BME280;53694;49.784;30.150;2023-04-02T06:38:51;98534.22;;;13.35;73.19
61474;BME280;53694;49.784;30.150;2023-04-02T06:39:55;98540.80;;;13.48;72.38
61474;BME280;53694;49.784;30.150;2023-04-02T06:41:04;98543.09;;;13.57;72.03
61474;BME280;53694;49.784;30.150;2023-04-02T06:43:40;98543.70;;;13.75;71.48
61474;BME280;53694;49.784;30.150;2023-04-02T06:44:38;98551.14;;;13.82;71.19
61474;BME280;53694;49.784;30.150;2023-04-02T06:45:42;98546.28;;;13.93;71.10
61474;BME280;53694;49.784;30.150;2023-04-02T06:46:47;98544.63;;;14.03;70.76
61474;BME280;53694;49.784;30.150;2023-04-02T06:47:51;98547.71;;;14.08;70.21
61474;BME280;53694;49.784;30.150;2023-04-02T06:48:59;98550.80;;;14.14;69.92
61474;BME280;53694;49.784;30.150;2023-04-02T06:50:14;98553.95;;;14.16;69.44
61474;BME280;53694;49.784;30.150;2023-04-02T06:51:19;98551.19;;;14.16;69.91
61474;BME280;53694;49.784;30.150;2023-04-02T06:52:27;98552.00;;;14.13;69.86
61474;BME280;53694;49.784;30.150;2023-04-02T06:53:41;98552.55;;;13.97;69.99
61474;BME280;53694;49.784;30.150;2023-04-02T06:54:43;98549.67;;;13.70;70.59
61474;BME280;53694;49.784;30.150;2023-04-02T06:56:08;98558.64;;;13.33;71.94
61474;BME280;53694;49.784;30.150;2023-04-02T06:57:05;98551.37;;;13.01;73.01
61474;BME280;53694;49.784;30.150;2023-04-02T06:58:08;98559.02;;;12.72;74.43
61474;BME280;53694;49.784;30.150;2023-04-02T06:59:10;98560.63;;;12.66;74.96
61474;BME280;53694;49.784;30.150;2023-04-02T07:00:23;98551.94;;;12.71;75.19
61474;BME280;53694;49.784;30.150;2023-04-02T07:01:27;98548.73;;;12.83;75.30
61474;BME280;53694;49.784;30.150;2023-04-02T07:02:34;98559.62;;;13.05;74.43
61474;BME280;53694;49.784;30.150;2023-04-02T07:03:36;98552.02;;;13.19;73.46
61474;BME280;53694;49.784;30.150;2023-04-02T07:04:40;98560.20;;;13.34;73.03
61474;BME280;53694;49.784;30.150;2023-04-02T07:05:41;98557.38;;;13.44;72.44
61474;BME280;53694;49.784;30.150;2023-04-02T07:06:43;98566.36;;;13.56;71.98
61474;BME280;53694;49.784;30.150;2023-04-02T07:07:45;98567.45;;;13.65;71.31